Pagina principale
METAR-TAF:

METAR-TAF

Aeroporti :

Port of Spain, Trinidad, Trinidad e Tobago

Aeroporto Internazionale di Piarco

latitudine: 10-37N, longitudine: 061-21W, altezza: 12 m

Osservazione

Il bollettino è stato emesso 55 minuti fa, alle 16:00 UTC
Vento 9 kt da est/sud-est
Temperature 28°C
Umidità 74%
Pressione 1015 hPa
Visibilità 10 km o più
Poco nuvoloso ad un'altezza di 1800 ft
rovesci nelle vicinanze, rovesci nelle vicinanze

METAR: TTPP 191600Z 12009KT 9999 VCSH FEW018 28/23 Q1015 RESH NOSIG VCSH ALQDS

Ora: 12:55 (16:55 UTC)

Previsione

Il bollettino è stato emesso 6 ore e 55 minuti fa, alle 10:00 UTC
Previsione valida dal 19 alle 12 UTC al 20 alle 12 UTC
Vento 15 kt da est/sud-est
Visibilità 10 km o più
Nubi sparse ad un'altezza di 2500 ft
Evoluzione graduale
dal 19 alle 23 UTC al 20 alle 01 UTC
Vento 5 kt da est
Poco nuvoloso ad un'altezza di 1800 ft

TAF: TTPP 191000Z 1912/2012 11015KT 9999 SCT025 BECMG 1923/2001 09005KT FEW018

Osservazioni e previsioni meteorologiche di più di 4000 aeroporti (messaggi METAR e TAF).

Le stazioni disponibili sono rappresentate dai dischi gialli e rossi sulla carta.

Puntare il mouse per vedere il nome della stazione.

Clicca sopra per visualizzare le osservazioni e previsioni meteorologiche.

Per cambiare la mappa : fare clic sui pulsanti verdi con una croce nera per ingrandire, il pulsante verde con un trattino per diminuire, o sulla freccia verde per le mappe adiacenti.


METAR-TAF: